Archival Weather

South Haven Area Rgnl

South Haven, Michigan (KLWA)

Report from: Saturday, September 30, 2023 4:15 PM EDT
Current time: Tuesday, February 27, 2024 4:29 AM EST

Current weather – Weather history – Daily summaries
Weather forecast

Temperature24.2°C (75.6°F)
Dew point17.6°C (63.7°F)
Winds 3 kts (1.5 m/s, 3.5 mph) North-Northwest (340°)
Visibility10 mi. (16.1 km)
Clouds Sky clear
Altimeter30.24 in.Hg (1024 mB)
Relative humidity67 %
Density altitude981 ft. (299 m)
Remarks Fully automated report
Automated weather observing station with precipitation discriminator
Flight conditions Visual Meteorological Conditions
Raw dataKLWA 302015Z AUTO 34003KT 10SM CLR 24/18 A3024 RMK AO2 T02420176
An error has occurred. This application may no longer respond until reloaded. Reload 🗙